< < Back
Terminal Aerodrome Forecast


Current Version              Previous Versions:   1  2  3  4  5  6  7  8  9  

Terminal Aerodrome Forecast

758
FTUS42 KMLB 230200 AAA
TAFMCO
TAF AMD
KMCO 230252Z 2303/2324 VRB02KT P6SM FEW250
     FM231400 28005KT P6SM FEW040
     FM232200 07005KT P6SM SCT040=



Latest METAR

590
SAUS70 KWBC 230900 RRI
MTRMCO
METAR KMCO 230853Z 00000KT 10SM CLR 24/23 A2997 RMK AO2 SLP148 T02390228
55010


USA.gov is the U.S. government's official web portal to all federal, state and local government web resources and services.